メインページ
METAR-TAF:

METAR-TAF

空港 :

ハガニア, グアム, アメリカ合衆国

グアム国際空港

緯度: 13-29N, 経度: 144-48E, 海抜: 91m

現時点の気象観測

当レポートは22分前の15:54(UTC)に作成
東/北東の風 11kt
気温 26°C
湿度 89%
気圧 1014 hPa
視程: 16.1km
晴天

METAR: PGUM 231554Z 07011KT 10SM CLR 26/24 A2994 RMK AO2 SLP132 T02610244

時間: 02:16 (16:16 UTC)

予報

当レポートは4時間41分前の11:35(UTC)に作成
予報は23日の 12時(UTC)から 24日の 18時(UTC)まで有効
の風 10kt
視程: 10km
高度2000ftの雲は散在している

TAF: PGUM 231135Z 2312/2418 08010KT P6SM SCT020

4,000以上の空港の気象観測と天気予報(METAR報とTAF報)

利用可能な観測所は地図上に黄色い丸と赤い丸で示す。

丸の上にカーソルを重ねると観測所名を参照できる。

次にクリックすると気象観測と天気予報を参照できる。

マップの切り替え:黒色「×」印の緑ボタンをクリックして拡大、「-」印の緑ボタンをクリックして縮小、緑色の三角印をクリックして隣りの地図に切り替え


METAR-TAF: